createdAt,value
2019-01-03T00:00:43.265Z,55.99
2019-01-03T00:02:02.935Z,55.72
2019-01-03T00:03:08.003Z,55.81
2019-01-03T00:04:15.687Z,55.74
2019-01-03T00:05:36.827Z,55.53
2019-01-03T00:06:57.761Z,55.19
2019-01-03T00:08:11.489Z,55.43
2019-01-03T00:09:22.357Z,55.50
2019-01-03T00:10:45.350Z,55.41
2019-01-03T00:12:02.266Z,55.56
2019-01-03T00:13:07.474Z,55.49
2019-01-03T00:14:28.713Z,55.74
2019-01-03T00:15:49.529Z,55.56
2019-01-03T00:16:54.600Z,55.81
2019-01-03T00:17:59.665Z,55.80
2019-01-03T00:19:04.725Z,55.51
2019-01-03T00:20:25.695Z,55.53
2019-01-03T00:21:33.492Z,55.42
2019-01-03T00:22:54.735Z,55.34
2019-01-03T00:24:08.835Z,55.50
2019-01-03T00:25:22.607Z,55.43
2019-01-03T00:26:43.573Z,55.31
2019-01-03T00:27:48.671Z,55.53
2019-01-03T00:29:05.513Z,55.59
2019-01-03T00:30:13.784Z,55.58
2019-01-03T00:31:21.676Z,55.35
2019-01-03T00:32:38.620Z,55.69
2019-01-03T00:33:46.103Z,55.46
2019-01-03T00:35:03.169Z,55.69
2019-01-03T00:36:24.167Z,55.61
2019-01-03T00:37:41.064Z,55.82
2019-01-03T00:38:48.931Z,55.74
2019-01-03T00:39:53.995Z,55.46
2019-01-03T00:40:59.069Z,55.68
2019-01-03T00:42:19.838Z,55.66
2019-01-03T00:43:27.918Z,55.24
2019-01-03T00:44:41.725Z,55.53
2019-01-03T00:46:02.806Z,55.36
2019-01-03T00:47:25.778Z,55.28
2019-01-03T00:48:36.872Z,55.17
2019-01-03T00:49:57.817Z,55.34
2019-01-03T00:51:17.955Z,55.20
2019-01-03T00:52:40.653Z,55.56
2019-01-03T00:53:48.441Z,55.61
2019-01-03T00:55:11.101Z,55.38
2019-01-03T00:56:16.181Z,55.68
2019-01-03T00:57:27.033Z,55.65
2019-01-03T00:58:37.960Z,55.37
2019-01-03T00:59:46.011Z,55.67
2019-01-03T01:00:53.932Z,55.54
2019-01-03T01:02:05.158Z,55.34
2019-01-03T01:03:22.326Z,55.31
2019-01-03T01:04:27.385Z,55.30
2019-01-03T01:05:41.064Z,55.39
2019-01-03T01:06:52.081Z,55.70
2019-01-03T01:08:06.257Z,55.72
2019-01-03T01:09:17.154Z,55.84
2019-01-03T01:10:33.748Z,56.00
2019-01-03T01:11:54.712Z,56.22
2019-01-03T01:13:15.981Z,56.15
2019-01-03T01:14:21.127Z,56.19
2019-01-03T01:15:26.187Z,56.24
2019-01-03T01:16:34.107Z,56.41
2019-01-03T01:17:44.913Z,56.56
2019-01-03T01:18:52.722Z,56.58
2019-01-03T01:20:13.679Z,56.35
2019-01-03T01:21:33.612Z,56.37
2019-01-03T01:22:44.551Z,56.17
2019-01-03T01:24:01.274Z,56.10
2019-01-03T01:25:21.252Z,55.93
2019-01-03T01:26:26.386Z,56.01
2019-01-03T01:27:37.040Z,56.08
2019-01-03T01:28:42.140Z,56.27
2019-01-03T01:29:56.223Z,56.23
2019-01-03T01:31:03.730Z,56.26
2019-01-03T01:32:14.477Z,56.10
2019-01-03T01:33:19.540Z,56.11
2019-01-03T01:34:33.717Z,56.33
2019-01-03T01:35:50.656Z,56.57
2019-01-03T01:37:13.863Z,56.69
2019-01-03T01:38:21.706Z,56.66
2019-01-03T01:39:29.740Z,56.61
2019-01-03T01:40:43.624Z,56.49
2019-01-03T01:42:04.784Z,56.63
2019-01-03T01:43:09.921Z,56.64
2019-01-03T01:44:15.054Z,56.80
2019-01-03T01:45:25.771Z,56.82
2019-01-03T01:46:30.907Z,56.88
2019-01-03T01:47:35.966Z,56.62
2019-01-03T01:48:58.772Z,56.75
2019-01-03T01:50:03.916Z,56.91
2019-01-03T01:51:11.759Z,57.04
2019-01-03T01:52:32.932Z,57.02
2019-01-03T01:53:38.009Z,57.01
2019-01-03T01:54:43.068Z,56.77
2019-01-03T01:55:50.793Z,56.88
2019-01-03T01:57:10.885Z,56.91
2019-01-03T01:58:18.353Z,56.84
2019-01-03T01:59:39.071Z,57.16
2019-01-03T02:00:44.229Z,57.38
2019-01-03T02:01:49.313Z,57.39
2019-01-03T02:02:54.442Z,57.37
2019-01-03T02:03:59.503Z,57.56
2019-01-03T02:05:19.809Z,57.81
2019-01-03T02:06:24.967Z,57.72
2019-01-03T02:07:45.948Z,57.63
2019-01-03T02:09:03.174Z,57.53
2019-01-03T02:10:10.894Z,57.40
2019-01-03T02:11:18.706Z,57.18
2019-01-03T02:12:39.616Z,57.22
2019-01-03T02:14:00.704Z,57.19
2019-01-03T02:15:23.773Z,57.37
2019-01-03T02:16:45.013Z,57.29
2019-01-03T02:18:05.997Z,57.17
2019-01-03T02:19:20.061Z,57.16
2019-01-03T02:20:30.884Z,57.23
2019-01-03T02:21:41.667Z,57.07
2019-01-03T02:22:55.293Z,56.96
2019-01-03T02:24:00.362Z,56.99
2019-01-03T02:25:17.369Z,56.95
2019-01-03T02:26:22.438Z,56.99
2019-01-03T02:27:43.118Z,56.91
2019-01-03T02:29:04.148Z,56.95
2019-01-03T02:30:15.095Z,56.47
2019-01-03T02:31:36.433Z,56.64
2019-01-03T02:32:47.134Z,56.63
2019-01-03T02:34:08.604Z,56.49
2019-01-03T02:35:13.685Z,56.48
2019-01-03T02:36:34.927Z,56.85
2019-01-03T02:37:45.962Z,56.91
2019-01-03T02:38:51.020Z,56.77
2019-01-03T02:39:56.087Z,56.89
2019-01-03T02:41:06.606Z,56.97
2019-01-03T02:42:17.374Z,57.04
2019-01-03T02:43:22.446Z,56.98
2019-01-03T02:44:43.345Z,56.82
2019-01-03T02:45:54.199Z,56.63
2019-01-03T02:46:59.265Z,56.60
2019-01-03T02:48:04.343Z,56.86
2019-01-03T02:49:25.456Z,56.88
2019-01-03T02:50:30.535Z,56.95
2019-01-03T02:51:35.592Z,56.75
2019-01-03T02:52:56.835Z,56.53
2019-01-03T02:54:13.881Z,56.77
2019-01-03T02:55:21.513Z,56.45
2019-01-03T02:56:26.609Z,56.82
2019-01-03T02:57:47.324Z,56.66
2019-01-03T02:58:52.410Z,56.58
2019-01-03T02:59:57.476Z,56.56
2019-01-03T03:01:05.483Z,56.38
2019-01-03T03:02:26.332Z,56.50
2019-01-03T03:03:33.888Z,56.69
2019-01-03T03:04:38.959Z,56.44
2019-01-03T03:06:02.027Z,56.77
2019-01-03T03:07:10.065Z,56.99
2019-01-03T03:08:17.799Z,56.97
2019-01-03T03:09:22.888Z,57.05
2019-01-03T03:10:28.032Z,57.25
2019-01-03T03:11:41.753Z,57.45
2019-01-03T03:12:55.624Z,57.74
2019-01-03T03:14:16.462Z,57.89
2019-01-03T03:15:30.340Z,57.91
2019-01-03T03:16:47.287Z,57.84
2019-01-03T03:17:58.220Z,57.90
2019-01-03T03:19:11.759Z,57.89
2019-01-03T03:20:19.692Z,57.93
2019-01-03T03:21:33.332Z,57.76
2019-01-03T03:22:38.373Z,57.76
2019-01-03T03:23:55.109Z,57.76
2019-01-03T03:25:00.395Z,57.91
2019-01-03T03:26:11.307Z,57.94
2019-01-03T03:27:28.011Z,57.95
2019-01-03T03:28:44.715Z,57.98
2019-01-03T03:29:52.653Z,57.99
2019-01-03T03:30:57.729Z,57.92
2019-01-03T03:32:18.662Z,58.13
2019-01-03T03:33:38.703Z,58.24
2019-01-03T03:34:43.769Z,58.04
2019-01-03T03:35:48.852Z,57.82
2019-01-03T03:37:09.895Z,57.88
2019-01-03T03:38:30.763Z,58.17
2019-01-03T03:39:35.820Z,58.17
2019-01-03T03:40:49.721Z,58.16
2019-01-03T03:41:57.442Z,58.21
2019-01-03T03:43:14.226Z,58.07
2019-01-03T03:44:19.289Z,57.79
2019-01-03T03:45:24.345Z,57.80
2019-01-03T03:46:29.434Z,58.04
2019-01-03T03:47:40.256Z,58.35
2019-01-03T03:49:01.317Z,58.66
2019-01-03T03:50:09.892Z,58.57
2019-01-03T03:51:17.685Z,58.39
2019-01-03T03:52:22.753Z,58.44
2019-01-03T03:53:43.628Z,58.47
2019-01-03T03:54:48.772Z,58.37
2019-01-03T03:56:09.950Z,58.37
2019-01-03T03:57:26.624Z,58.24
2019-01-03T03:58:34.293Z,58.40
2019-01-03T03:59:39.364Z,58.59
2019-01-03T04:01:00.231Z,58.60
2019-01-03T04:02:08.268Z,58.51
2019-01-03T04:03:13.335Z,58.43
2019-01-03T04:04:34.282Z,58.31
2019-01-03T04:05:57.330Z,58.25
2019-01-03T04:07:02.418Z,58.12
2019-01-03T04:08:25.528Z,58.03
2019-01-03T04:09:30.592Z,58.14
2019-01-03T04:10:50.618Z,58.12
2019-01-03T04:12:10.630Z,58.18
2019-01-03T04:13:18.515Z,58.54
2019-01-03T04:14:41.633Z,58.72
2019-01-03T04:15:46.692Z,58.61
2019-01-03T04:16:51.760Z,58.69
2019-01-03T04:18:05.774Z,58.66
2019-01-03T04:19:10.845Z,58.77
2019-01-03T04:20:21.750Z,58.88
2019-01-03T04:21:42.780Z,58.67
2019-01-03T04:22:56.304Z,58.58
2019-01-03T04:24:01.387Z,58.46
2019-01-03T04:25:06.589Z,58.58
2019-01-03T04:26:11.731Z,58.59
2019-01-03T04:27:25.855Z,58.36
2019-01-03T04:28:46.618Z,58.60
2019-01-03T04:29:57.123Z,58.66
2019-01-03T04:31:11.061Z,58.50
2019-01-03T04:32:25.027Z,58.47
2019-01-03T04:33:48.037Z,58.77
2019-01-03T04:34:55.922Z,58.77
2019-01-03T04:36:12.893Z,58.66
2019-01-03T04:37:32.554Z,58.53
2019-01-03T04:38:49.474Z,58.52
2019-01-03T04:39:57.651Z,58.45
2019-01-03T04:41:18.753Z,58.40
2019-01-03T04:42:32.399Z,58.49
2019-01-03T04:43:55.287Z,58.48
2019-01-03T04:45:03.126Z,58.53
2019-01-03T04:46:26.248Z,58.63
2019-01-03T04:47:49.295Z,58.61
2019-01-03T04:49:03.303Z,58.71
2019-01-03T04:50:14.038Z,58.74
2019-01-03T04:51:28.085Z,59.01
2019-01-03T04:52:36.045Z,58.99
2019-01-03T04:53:44.003Z,58.99
2019-01-03T04:54:51.920Z,58.93
2019-01-03T04:56:02.834Z,58.86
2019-01-03T04:57:13.847Z,58.84
2019-01-03T04:58:18.907Z,58.72
2019-01-03T04:59:39.917Z,58.62
2019-01-03T05:00:45.011Z,58.52
2019-01-03T05:02:07.062Z,58.24
2019-01-03T05:03:23.727Z,58.27
2019-01-03T05:04:28.776Z,58.30
2019-01-03T05:05:33.869Z,58.12
2019-01-03T05:06:38.936Z,58.25
2019-01-03T05:08:00.098Z,58.39
2019-01-03T05:09:11.194Z,58.50
2019-01-03T05:10:27.986Z,58.51
2019-01-03T05:11:33.074Z,58.62
2019-01-03T05:12:53.781Z,58.52
2019-01-03T05:14:04.812Z,58.68
2019-01-03T05:15:09.937Z,58.81
2019-01-03T05:16:15.017Z,58.80
2019-01-03T05:17:22.670Z,58.73
2019-01-03T05:18:43.482Z,58.48
2019-01-03T05:19:54.411Z,58.38
2019-01-03T05:21:15.686Z,58.23
2019-01-03T05:22:29.640Z,58.05
2019-01-03T05:23:37.392Z,58.04
2019-01-03T05:24:51.397Z,58.50
2019-01-03T05:26:14.270Z,58.74
2019-01-03T05:27:24.819Z,58.69
2019-01-03T05:28:45.645Z,58.59
2019-01-03T05:30:03.580Z,58.37
2019-01-03T05:31:08.611Z,58.33
2019-01-03T05:32:29.856Z,58.07
2019-01-03T05:33:40.706Z,58.33
2019-01-03T05:34:51.584Z,58.49
2019-01-03T05:36:12.628Z,58.52
2019-01-03T05:37:17.713Z,58.42
2019-01-03T05:38:22.778Z,58.49
2019-01-03T05:39:27.903Z,58.52
2019-01-03T05:40:38.664Z,58.66
2019-01-03T05:41:52.562Z,58.75
2019-01-03T05:43:15.501Z,58.83
2019-01-03T05:44:26.172Z,58.54
2019-01-03T05:45:31.300Z,58.62
2019-01-03T05:46:41.838Z,58.53
2019-01-03T05:48:04.688Z,58.77
2019-01-03T05:49:25.744Z,58.66
2019-01-03T05:50:33.654Z,58.74
2019-01-03T05:51:41.561Z,59.01
2019-01-03T05:53:02.677Z,59.07
2019-01-03T05:54:10.803Z,59.14
2019-01-03T05:55:15.874Z,59.16
2019-01-03T05:56:21.002Z,59.19
2019-01-03T05:57:34.976Z,59.13
2019-01-03T05:58:40.017Z,58.95
2019-01-03T05:59:47.678Z,58.83
2019-01-03T06:01:01.890Z,58.75
2019-01-03T06:02:21.762Z,58.77
2019-01-03T06:03:26.826Z,58.81
2019-01-03T06:04:34.471Z,58.71
2019-01-03T06:05:55.416Z,58.49
2019-01-03T06:07:18.367Z,58.37
2019-01-03T06:08:39.195Z,58.52
2019-01-03T06:09:59.201Z,58.63
2019-01-03T06:11:15.763Z,58.74
2019-01-03T06:12:20.839Z,58.67
2019-01-03T06:13:25.890Z,58.59
2019-01-03T06:14:48.990Z,58.45
2019-01-03T06:16:08.990Z,58.39
2019-01-03T06:17:30.112Z,58.16
2019-01-03T06:18:38.076Z,58.18
2019-01-03T06:19:43.155Z,57.98
2019-01-03T06:20:56.808Z,57.99
2019-01-03T06:22:17.793Z,58.15
2019-01-03T06:23:34.694Z,58.22
2019-01-03T06:24:55.846Z,58.14
2019-01-03T06:26:15.623Z,58.11
2019-01-03T06:27:26.481Z,58.30
2019-01-03T06:28:49.294Z,58.35
2019-01-03T06:30:10.450Z,58.50
2019-01-03T06:31:24.200Z,58.88
2019-01-03T06:32:29.270Z,59.08
2019-01-03T06:33:34.346Z,59.33
2019-01-03T06:34:42.172Z,59.28
2019-01-03T06:35:49.943Z,59.31
2019-01-03T06:36:55.016Z,59.30
2019-01-03T06:38:14.885Z,59.29
2019-01-03T06:39:23.012Z,59.19
2019-01-03T06:40:28.088Z,59.12
2019-01-03T06:41:35.968Z,59.13
2019-01-03T06:42:55.817Z,59.11
2019-01-03T06:44:09.640Z,59.39
2019-01-03T06:45:30.662Z,59.54
2019-01-03T06:46:38.483Z,59.53
2019-01-03T06:47:52.165Z,59.42
2019-01-03T06:48:59.624Z,59.40
2019-01-03T06:50:19.668Z,59.43
2019-01-03T06:51:30.431Z,59.42
2019-01-03T06:52:50.498Z,59.46
2019-01-03T06:54:11.614Z,59.49
2019-01-03T06:55:22.405Z,59.43
2019-01-03T06:56:30.330Z,59.58
2019-01-03T06:57:47.022Z,59.39
2019-01-03T06:59:01.100Z,59.37
2019-01-03T07:00:10.323Z,59.24
2019-01-03T07:01:21.378Z,59.22
2019-01-03T07:02:29.055Z,59.35
2019-01-03T07:03:34.164Z,59.37
2019-01-03T07:04:39.351Z,59.33
2019-01-03T07:05:56.270Z,59.37
2019-01-03T07:07:01.354Z,59.54
2019-01-03T07:08:22.142Z,59.31
2019-01-03T07:09:39.059Z,59.42
2019-01-03T07:10:49.599Z,59.25
2019-01-03T07:11:54.734Z,59.22
2019-01-03T07:13:16.292Z,59.36
2019-01-03T07:14:21.427Z,59.39
2019-01-03T07:15:26.600Z,59.19
2019-01-03T07:16:34.520Z,59.19
2019-01-03T07:17:39.765Z,59.13
2019-01-03T07:18:47.843Z,59.06
2019-01-03T07:19:55.538Z,59.00
2019-01-03T07:21:16.948Z,59.00
2019-01-03T07:22:25.073Z,58.92
2019-01-03T07:23:42.121Z,58.81
2019-01-03T07:25:02.051Z,59.13
2019-01-03T07:26:09.660Z,59.27
2019-01-03T07:27:20.536Z,59.43
2019-01-03T07:28:31.518Z,59.29
2019-01-03T07:29:39.420Z,59.22
2019-01-03T07:30:56.232Z,59.27
2019-01-03T07:32:17.452Z,59.35
2019-01-03T07:33:38.572Z,59.33
2019-01-03T07:34:59.512Z,59.22
2019-01-03T07:36:10.169Z,59.02
2019-01-03T07:37:31.010Z,58.82
2019-01-03T07:38:41.907Z,59.05
2019-01-03T07:39:50.060Z,59.04
2019-01-03T07:41:11.177Z,59.06
2019-01-03T07:42:16.331Z,59.13
2019-01-03T07:43:39.472Z,58.93
2019-01-03T07:45:00.732Z,59.17
2019-01-03T07:46:10.992Z,59.10
2019-01-03T07:47:31.176Z,59.21
2019-01-03T07:48:45.386Z,59.19
2019-01-03T07:49:59.433Z,58.75
2019-01-03T07:51:20.578Z,58.91
2019-01-03T07:52:41.294Z,59.06
2019-01-03T07:53:54.800Z,59.07
2019-01-03T07:55:08.660Z,59.11
2019-01-03T07:56:19.618Z,59.19
2019-01-03T07:57:40.799Z,59.12
2019-01-03T07:59:02.267Z,58.84
2019-01-03T08:00:12.231Z,58.65
2019-01-03T08:01:33.607Z,58.77
2019-01-03T08:02:54.593Z,59.02
2019-01-03T08:04:02.399Z,59.13
2019-01-03T08:05:10.203Z,58.93
2019-01-03T08:06:20.948Z,58.81
2019-01-03T08:07:26.031Z,58.90
2019-01-03T08:08:40.173Z,58.93
2019-01-03T08:09:50.986Z,58.81
2019-01-03T08:10:56.089Z,58.87
2019-01-03T08:12:09.913Z,58.79
2019-01-03T08:13:14.983Z,58.69
2019-01-03T08:14:25.651Z,59.11
2019-01-03T08:15:30.716Z,59.19
2019-01-03T08:16:47.712Z,59.26
2019-01-03T08:17:55.435Z,59.04
2019-01-03T08:19:03.136Z,59.13
2019-01-03T08:20:11.333Z,58.81
2019-01-03T08:21:25.005Z,58.83
2019-01-03T08:22:36.014Z,58.83
2019-01-03T08:23:58.826Z,59.02
2019-01-03T08:25:03.903Z,58.86
2019-01-03T08:26:09.025Z,58.74
2019-01-03T08:27:30.419Z,59.02
2019-01-03T08:28:51.520Z,59.26
2019-01-03T08:30:02.394Z,59.38
2019-01-03T08:31:07.527Z,59.41
2019-01-03T08:32:12.596Z,59.54
2019-01-03T08:33:35.679Z,59.50
2019-01-03T08:34:43.719Z,59.28
2019-01-03T08:35:51.464Z,59.23
2019-01-03T08:37:05.304Z,58.93
2019-01-03T08:38:16.529Z,58.97
2019-01-03T08:39:27.491Z,58.87
2019-01-03T08:40:48.751Z,59.00
2019-01-03T08:42:09.876Z,58.94
2019-01-03T08:43:30.628Z,58.54
2019-01-03T08:44:41.494Z,58.60
2019-01-03T08:45:52.578Z,58.60
2019-01-03T08:47:13.719Z,58.49
2019-01-03T08:48:27.935Z,58.55
2019-01-03T08:49:38.730Z,58.64
2019-01-03T08:50:55.447Z,58.53
2019-01-03T08:52:03.351Z,58.43
2019-01-03T08:53:24.479Z,58.13
2019-01-03T08:54:47.635Z,58.17
2019-01-03T08:56:11.008Z,58.33
2019-01-03T08:57:16.104Z,58.24
2019-01-03T08:58:23.958Z,58.47
2019-01-03T08:59:29.109Z,58.41
2019-01-03T09:00:39.812Z,58.26
2019-01-03T09:02:00.784Z,58.33
2019-01-03T09:03:17.588Z,58.33
2019-01-03T09:04:40.807Z,58.37
2019-01-03T09:05:48.683Z,58.46
2019-01-03T09:06:53.740Z,58.50
2019-01-03T09:08:01.270Z,58.43
2019-01-03T09:09:20.102Z,58.40
2019-01-03T09:10:36.985Z,58.42
2019-01-03T09:11:50.558Z,58.36
2019-01-03T09:13:11.239Z,58.11
2019-01-03T09:14:16.311Z,58.33
2019-01-03T09:15:37.105Z,58.48
2019-01-03T09:16:45.003Z,58.64
2019-01-03T09:17:50.070Z,58.72
2019-01-03T09:18:57.827Z,58.74
2019-01-03T09:20:11.977Z,58.59
2019-01-03T09:21:19.948Z,58.62
2019-01-03T09:22:37.271Z,58.68
2019-01-03T09:23:54.216Z,58.55
2019-01-03T09:25:04.807Z,58.38
2019-01-03T09:26:18.876Z,58.11
2019-01-03T09:27:23.941Z,57.87
2019-01-03T09:28:45.025Z,58.04
2019-01-03T09:30:06.308Z,58.17
2019-01-03T09:31:23.197Z,58.16
2019-01-03T09:32:28.286Z,58.30
2019-01-03T09:33:35.381Z,58.32
2019-01-03T09:34:45.973Z,58.08
2019-01-03T09:35:53.690Z,58.28
2019-01-03T09:37:04.356Z,58.40
2019-01-03T09:38:12.140Z,58.54
2019-01-03T09:39:23.187Z,58.62
2019-01-03T09:40:28.255Z,58.45
2019-01-03T09:41:35.881Z,58.29
2019-01-03T09:42:49.688Z,58.21
2019-01-03T09:43:57.195Z,58.32
2019-01-03T09:45:00.693Z,58.05
2019-01-03T09:46:04.189Z,58.18
2019-01-03T09:47:07.610Z,58.19
2019-01-03T09:48:11.170Z,58.03
2019-01-03T09:49:14.603Z,57.78
2019-01-03T09:50:18.031Z,57.93
2019-01-03T09:51:21.446Z,58.08
2019-01-03T09:52:24.888Z,58.13
2019-01-03T09:53:28.341Z,58.09
2019-01-03T09:54:31.838Z,57.98
2019-01-03T09:55:35.337Z,58.16
2019-01-03T09:56:38.760Z,58.11
2019-01-03T09:57:42.272Z,57.80
2019-01-03T09:58:45.817Z,57.98
2019-01-03T09:59:49.398Z,58.24
2019-01-03T10:00:52.830Z,57.97
2019-01-03T10:01:56.338Z,58.05
2019-01-03T10:02:59.805Z,57.56
2019-01-03T10:04:03.485Z,57.63
2019-01-03T10:05:06.987Z,57.73
2019-01-03T10:06:10.425Z,57.80
2019-01-03T10:07:13.845Z,57.91
2019-01-03T10:08:19.725Z,58.06
2019-01-03T10:09:22.611Z,58.06
2019-01-03T10:10:26.306Z,58.13
2019-01-03T10:11:29.793Z,58.18
2019-01-03T10:12:33.231Z,58.21
2019-01-03T10:13:36.766Z,58.09
2019-01-03T10:14:40.358Z,58.15
2019-01-03T10:15:43.793Z,57.81
2019-01-03T10:16:47.287Z,57.71
2019-01-03T10:17:50.779Z,57.65
2019-01-03T10:18:54.241Z,57.65
2019-01-03T10:19:57.779Z,57.59
2019-01-03T10:21:01.280Z,57.60
2019-01-03T10:22:04.773Z,57.53
2019-01-03T10:23:08.269Z,57.18
2019-01-03T10:24:11.750Z,57.27
2019-01-03T10:25:15.201Z,56.99
2019-01-03T10:26:18.634Z,56.90
2019-01-03T10:27:22.134Z,56.96
2019-01-03T10:28:25.607Z,56.63
2019-01-03T10:29:29.053Z,56.63
2019-01-03T10:30:32.654Z,56.94
2019-01-03T10:31:36.066Z,56.92
2019-01-03T10:32:39.512Z,56.89
2019-01-03T10:33:42.968Z,56.63
2019-01-03T10:34:46.631Z,56.76
2019-01-03T10:35:50.063Z,56.50
2019-01-03T10:36:53.496Z,56.51
2019-01-03T10:37:57.059Z,56.69
2019-01-03T10:39:00.480Z,56.54
2019-01-03T10:40:05.366Z,56.36
2019-01-03T10:41:08.784Z,55.77
2019-01-03T10:42:12.288Z,56.41
2019-01-03T10:43:15.915Z,56.15
2019-01-03T10:44:19.511Z,56.10
2019-01-03T10:45:23.024Z,55.78
2019-01-03T10:46:26.447Z,55.52
2019-01-03T10:47:29.878Z,55.59
2019-01-03T10:48:33.374Z,55.41
2019-01-03T10:49:36.901Z,55.38
2019-01-03T10:50:40.323Z,55.45
2019-01-03T10:51:43.761Z,55.42
2019-01-03T10:52:47.417Z,55.25
2019-01-03T10:53:50.914Z,55.37
2019-01-03T10:54:54.313Z,55.47
2019-01-03T10:55:57.829Z,55.26
2019-01-03T10:57:01.300Z,55.03
2019-01-03T10:58:04.810Z,54.92
2019-01-03T10:59:08.283Z,54.86
2019-01-03T11:00:12.160Z,54.73
2019-01-03T11:01:15.591Z,54.92
2019-01-03T11:02:19.048Z,54.65
2019-01-03T11:03:22.476Z,54.47
2019-01-03T11:04:26.048Z,54.52
2019-01-03T11:05:29.506Z,54.34
2019-01-03T11:06:32.938Z,54.39
2019-01-03T11:07:36.379Z,54.30
2019-01-03T11:08:39.808Z,54.33
2019-01-03T11:09:43.461Z,54.39
2019-01-03T11:10:46.998Z,54.35
2019-01-03T11:11:50.502Z,54.47
2019-01-03T11:12:54.034Z,54.16
2019-01-03T11:13:57.598Z,54.10
2019-01-03T11:15:01.228Z,54.09
2019-01-03T11:16:04.809Z,53.91
2019-01-03T11:17:08.426Z,53.86
2019-01-03T11:18:11.847Z,53.88
2019-01-03T11:19:15.292Z,53.43
2019-01-03T11:20:18.748Z,53.55
2019-01-03T11:21:22.204Z,53.73
2019-01-03T11:22:25.722Z,53.61
2019-01-03T11:23:29.292Z,52.88
2019-01-03T11:24:32.790Z,53.12
2019-01-03T11:25:36.247Z,53.14
2019-01-03T11:26:39.766Z,53.34
2019-01-03T11:27:43.290Z,53.15
2019-01-03T11:28:46.768Z,53.37
2019-01-03T11:29:50.272Z,53.41
2019-01-03T11:30:53.910Z,53.42
2019-01-03T11:31:57.525Z,53.18
2019-01-03T11:33:00.970Z,53.51
2019-01-03T11:34:04.455Z,52.84
2019-01-03T11:35:08.056Z,53.15
2019-01-03T11:36:11.639Z,53.32
2019-01-03T11:37:15.112Z,53.33
2019-01-03T11:38:18.548Z,53.20
2019-01-03T11:39:22.074Z,53.37
2019-01-03T11:40:25.511Z,53.58
2019-01-03T11:41:28.968Z,53.64
2019-01-03T11:42:32.514Z,53.73
2019-01-03T11:43:35.956Z,53.46
2019-01-03T11:44:39.380Z,53.38
2019-01-03T11:45:42.813Z,53.18
2019-01-03T11:46:46.403Z,53.19
2019-01-03T11:47:49.764Z,53.17
2019-01-03T11:48:53.257Z,53.44
2019-01-03T11:49:56.686Z,53.09
2019-01-03T11:51:00.155Z,52.69
2019-01-03T11:52:03.631Z,53.05
2019-01-03T11:53:07.127Z,53.35
2019-01-03T11:54:10.508Z,53.45
2019-01-03T11:55:13.944Z,53.53
2019-01-03T11:56:17.367Z,53.66
2019-01-03T11:57:21.387Z,53.33
2019-01-03T11:58:24.795Z,53.45
2019-01-03T11:59:28.231Z,53.29
2019-01-03T12:00:31.657Z,53.20
2019-01-03T12:01:35.153Z,53.71
2019-01-03T12:02:38.771Z,53.77
2019-01-03T12:03:42.159Z,53.94
2019-01-03T12:04:45.589Z,53.72
2019-01-03T12:05:49.084Z,53.73
2019-01-03T12:06:52.532Z,53.63
2019-01-03T12:07:55.993Z,53.50
2019-01-03T12:08:59.424Z,53.45
2019-01-03T12:10:02.911Z,53.38
2019-01-03T12:11:06.340Z,53.53
2019-01-03T12:12:09.787Z,53.75
2019-01-03T12:13:13.229Z,53.47
2019-01-03T12:14:16.686Z,53.19
2019-01-03T12:15:20.119Z,52.92
2019-01-03T12:16:23.571Z,53.33
2019-01-03T12:17:27.011Z,52.86
2019-01-03T12:18:30.459Z,52.67
2019-01-03T12:19:33.911Z,52.98
2019-01-03T12:20:37.355Z,52.99
2019-01-03T12:21:40.774Z,53.05
2019-01-03T12:22:44.214Z,53.15
2019-01-03T12:23:47.660Z,53.07
2019-01-03T12:24:51.109Z,52.97
2019-01-03T12:25:54.510Z,52.61
2019-01-03T12:26:58.006Z,52.65
2019-01-03T12:28:01.501Z,52.28
2019-01-03T12:29:04.958Z,52.53
2019-01-03T12:30:10.147Z,52.59
2019-01-03T12:31:13.628Z,52.57
2019-01-03T12:32:17.060Z,52.07
2019-01-03T12:33:20.478Z,51.95
2019-01-03T12:34:24.069Z,52.11
2019-01-03T12:35:27.555Z,52.36
2019-01-03T12:36:30.980Z,51.90
2019-01-03T12:37:34.423Z,51.54
2019-01-03T12:38:37.852Z,51.57
2019-01-03T12:39:41.297Z,50.98
2019-01-03T12:40:44.717Z,50.14
2019-01-03T12:41:48.141Z,49.20
2019-01-03T12:42:51.568Z,48.74
2019-01-03T12:43:55.092Z,48.61
2019-01-03T12:44:58.545Z,47.51
2019-01-03T12:46:01.971Z,48.27
2019-01-03T12:47:05.392Z,48.53
2019-01-03T12:48:08.836Z,48.34
2019-01-03T12:49:12.334Z,49.06
2019-01-03T12:50:15.789Z,48.90
2019-01-03T12:51:19.226Z,48.75
2019-01-03T12:52:22.641Z,48.44
2019-01-03T12:53:26.066Z,48.80
2019-01-03T12:54:29.492Z,48.30
2019-01-03T12:55:32.941Z,49.07
2019-01-03T12:56:36.370Z,49.03
2019-01-03T12:57:39.800Z,49.27
2019-01-03T12:58:43.234Z,49.48
2019-01-03T12:59:46.678Z,49.80
2019-01-03T13:00:50.202Z,49.84
2019-01-03T13:01:53.634Z,49.59
2019-01-03T13:02:57.138Z,49.83
2019-01-03T13:04:00.637Z,49.39
2019-01-03T13:05:04.492Z,49.04
2019-01-03T13:06:08.009Z,48.29
2019-01-03T13:07:11.458Z,48.64
2019-01-03T13:08:14.883Z,48.75
2019-01-03T13:09:19.001Z,48.97
2019-01-03T13:10:22.430Z,49.27
2019-01-03T13:11:25.883Z,49.52
2019-01-03T13:12:29.322Z,49.07
2019-01-03T13:13:32.750Z,48.91
2019-01-03T13:14:36.675Z,48.42
2019-01-03T13:15:40.111Z,48.79
2019-01-03T13:16:43.621Z,48.93
2019-01-03T13:17:47.323Z,48.53
2019-01-03T13:18:50.746Z,48.99
2019-01-03T13:19:54.271Z,49.46
2019-01-03T13:20:57.779Z,49.47
2019-01-03T13:22:01.227Z,48.99
2019-01-03T13:23:04.806Z,49.33
2019-01-03T13:24:08.365Z,49.40
2019-01-03T13:25:11.849Z,49.13
2019-01-03T13:26:15.346Z,48.97
2019-01-03T13:27:18.791Z,49.42
2019-01-03T13:28:22.215Z,49.40
2019-01-03T13:29:25.667Z,49.23
2019-01-03T13:30:29.109Z,49.33
2019-01-03T13:31:32.560Z,49.36
2019-01-03T13:32:36.247Z,49.02
2019-01-03T13:33:39.742Z,49.19
2019-01-03T13:34:43.173Z,48.92
2019-01-03T13:35:46.731Z,48.98
2019-01-03T13:36:50.339Z,49.59
2019-01-03T13:37:53.790Z,49.65
2019-01-03T13:38:57.458Z,49.82
2019-01-03T13:40:00.892Z,50.05
2019-01-03T13:41:04.329Z,49.85
2019-01-03T13:42:07.864Z,49.96
2019-01-03T13:43:11.416Z,50.33
2019-01-03T13:44:14.812Z,50.16
2019-01-03T13:45:18.243Z,50.52
2019-01-03T13:46:21.653Z,50.66
2019-01-03T13:47:25.111Z,50.54
2019-01-03T13:48:28.618Z,50.87
2019-01-03T13:49:32.065Z,51.05
2019-01-03T13:50:35.586Z,50.84
2019-01-03T13:51:39.193Z,50.96
2019-01-03T13:52:42.723Z,50.98
2019-01-03T13:53:46.177Z,50.94
2019-01-03T13:54:49.738Z,50.88
2019-01-03T13:55:54.126Z,50.77
2019-01-03T13:56:57.591Z,50.54
2019-01-03T13:58:00.991Z,50.48
2019-01-03T13:59:04.452Z,50.39
2019-01-03T14:00:09.741Z,50.75
2019-01-03T14:01:13.162Z,50.95
2019-01-03T14:02:16.585Z,50.90
2019-01-03T14:03:20.070Z,51.10
2019-01-03T14:04:23.509Z,51.12
2019-01-03T14:05:27.099Z,51.24
2019-01-03T14:06:30.517Z,51.19
2019-01-03T14:07:33.951Z,51.16
2019-01-03T14:08:37.377Z,50.98
2019-01-03T14:09:40.820Z,50.92
2019-01-03T14:10:44.269Z,50.99
2019-01-03T14:11:47.757Z,51.24
2019-01-03T14:12:51.256Z,51.08
2019-01-03T14:13:54.757Z,50.95
2019-01-03T14:14:58.208Z,50.79
2019-01-03T14:16:01.701Z,51.06
2019-01-03T14:17:05.264Z,51.14
2019-01-03T14:18:08.691Z,51.27
2019-01-03T14:19:12.195Z,51.07
2019-01-03T14:20:15.640Z,51.10
2019-01-03T14:21:19.106Z,50.96
2019-01-03T14:22:22.534Z,51.04
2019-01-03T14:23:25.952Z,50.87
2019-01-03T14:24:29.388Z,50.95
2019-01-03T14:25:32.845Z,51.11
2019-01-03T14:26:36.376Z,51.50
2019-01-03T14:27:39.804Z,51.57
2019-01-03T14:28:43.222Z,51.41
2019-01-03T14:29:46.654Z,51.33
2019-01-03T14:30:50.200Z,51.41
2019-01-03T14:31:53.706Z,51.41
2019-01-03T14:32:57.142Z,51.55
2019-01-03T14:34:00.592Z,51.68
2019-01-03T14:35:04.558Z,51.82
2019-01-03T14:36:08.019Z,51.47
2019-01-03T14:37:11.462Z,51.78
2019-01-03T14:38:14.891Z,51.69
2019-01-03T14:39:18.460Z,51.88
2019-01-03T14:40:21.964Z,51.73
2019-01-03T14:41:25.485Z,51.69
2019-01-03T14:42:28.963Z,51.82
2019-01-03T14:43:32.541Z,51.86
2019-01-03T14:44:35.974Z,51.87
2019-01-03T14:45:39.470Z,51.87
2019-01-03T14:46:42.995Z,51.98
2019-01-03T14:47:46.451Z,51.94
2019-01-03T14:48:50.154Z,51.95
2019-01-03T14:49:53.522Z,51.96
2019-01-03T14:50:56.956Z,51.93
2019-01-03T14:52:00.427Z,51.98